sensor_id;sensor_type;location;lat;lon;timestamp;pressure;altitude;pressure_sealevel;temperature;humidity
82931;BME280;72705;53.346;10.248;2023-12-28T00:02:21;100634.13;;;6.77;89.16
82931;BME280;72705;53.346;10.248;2023-12-28T00:04:47;100693.22;;;7.23;88.04
82931;BME280;72705;53.346;10.248;2023-12-28T00:07:12;100636.81;;;6.96;88.73
82931;BME280;72705;53.346;10.248;2023-12-28T00:09:38;100677.44;;;7.20;87.53
82931;BME280;72705;53.346;10.248;2023-12-28T00:12:04;100670.34;;;7.29;87.02
82931;BME280;72705;53.346;10.248;2023-12-28T00:14:30;100686.44;;;7.39;87.02
82931;BME280;72705;53.346;10.248;2023-12-28T00:16:56;100621.84;;;7.03;86.56
82931;BME280;72705;53.346;10.248;2023-12-28T00:19:24;100569.66;;;6.69;87.24
82931;BME280;72705;53.346;10.248;2023-12-28T00:21:50;100670.06;;;7.22;87.85
82931;BME280;72705;53.346;10.248;2023-12-28T00:24:16;100671.50;;;7.26;87.70
82931;BME280;72705;53.346;10.248;2023-12-28T00:26:41;100679.09;;;7.31;86.75
82931;BME280;72705;53.346;10.248;2023-12-28T00:29:07;100681.94;;;7.20;86.76
82931;BME280;72705;53.346;10.248;2023-12-28T00:31:32;100682.66;;;7.12;87.97
82931;BME280;72705;53.346;10.248;2023-12-28T00:33:57;100691.97;;;7.18;87.47
82931;BME280;72705;53.346;10.248;2023-12-28T00:36:25;100663.06;;;7.02;87.37
82931;BME280;72705;53.346;10.248;2023-12-28T00:38:50;100646.94;;;6.93;86.70
82931;BME280;72705;53.346;10.248;2023-12-28T00:41:16;100630.16;;;7.00;85.75
82931;BME280;72705;53.346;10.248;2023-12-28T00:43:41;100655.28;;;6.99;87.00
82931;BME280;72705;53.346;10.248;2023-12-28T00:46:07;100670.63;;;7.16;86.70
82931;BME280;72705;53.346;10.248;2023-12-28T00:48:32;100639.31;;;6.98;86.28
82931;BME280;72705;53.346;10.248;2023-12-28T00:50:58;100655.13;;;7.10;87.37
82931;BME280;72705;53.346;10.248;2023-12-28T00:53:26;100661.34;;;7.11;88.58
82931;BME280;72705;53.346;10.248;2023-12-28T00:55:51;100633.72;;;6.91;89.55
82931;BME280;72705;53.346;10.248;2023-12-28T00:58:19;100651.75;;;6.89;91.04
82931;BME280;72705;53.346;10.248;2023-12-28T01:00:45;100692.53;;;7.02;92.64
82931;BME280;72705;53.346;10.248;2023-12-28T01:03:10;100732.19;;;7.08;94.18
82931;BME280;72705;53.346;10.248;2023-12-28T01:05:36;100721.06;;;7.03;94.64
82931;BME280;72705;53.346;10.248;2023-12-28T01:08:01;100702.28;;;6.84;94.76
82931;BME280;72705;53.346;10.248;2023-12-28T01:10:29;100663.03;;;6.64;94.18
82931;BME280;72705;53.346;10.248;2023-12-28T01:12:55;100613.66;;;6.37;95.59
82931;BME280;72705;53.346;10.248;2023-12-28T01:15:20;100738.13;;;7.02;96.22
82931;BME280;72705;53.346;10.248;2023-12-28T01:17:46;100737.41;;;7.00;96.30
82931;BME280;72705;53.346;10.248;2023-12-28T01:20:12;100696.88;;;6.74;96.72
82931;BME280;72705;53.346;10.248;2023-12-28T01:22:37;100736.69;;;6.98;96.94
82931;BME280;72705;53.346;10.248;2023-12-28T01:25:03;100697.19;;;6.71;97.56
82931;BME280;72705;53.346;10.248;2023-12-28T01:27:29;100729.34;;;6.81;97.35
82931;BME280;72705;53.346;10.248;2023-12-28T01:29:55;100719.19;;;6.94;96.54
82931;BME280;72705;53.346;10.248;2023-12-28T01:32:21;100687.72;;;6.77;96.98
82931;BME280;72705;53.346;10.248;2023-12-28T01:34:46;100701.72;;;6.90;97.08
82931;BME280;72705;53.346;10.248;2023-12-28T01:37:11;100729.06;;;6.94;97.04
82931;BME280;72705;53.346;10.248;2023-12-28T01:39:37;100725.69;;;7.01;97.28
82931;BME280;72705;53.346;10.248;2023-12-28T01:42:02;100707.78;;;6.82;96.82
82931;BME280;72705;53.346;10.248;2023-12-28T01:44:29;100750.25;;;7.06;98.25
82931;BME280;72705;53.346;10.248;2023-12-28T01:46:55;100716.09;;;6.99;97.26
82931;BME280;72705;53.346;10.248;2023-12-28T01:49:20;100752.50;;;7.11;97.78
82931;BME280;72705;53.346;10.248;2023-12-28T01:51:47;100761.28;;;7.03;97.67
82931;BME280;72705;53.346;10.248;2023-12-28T01:54:13;100766.06;;;7.09;98.02
82931;BME280;72705;53.346;10.248;2023-12-28T01:56:39;100749.28;;;7.07;96.71
82931;BME280;72705;53.346;10.248;2023-12-28T01:59:04;100737.25;;;7.11;96.48
82931;BME280;72705;53.346;10.248;2023-12-28T02:01:30;100739.09;;;7.11;96.76
82931;BME280;72705;53.346;10.248;2023-12-28T02:03:56;100777.63;;;7.29;96.67
82931;BME280;72705;53.346;10.248;2023-12-28T02:06:23;100702.84;;;6.97;96.53
82931;BME280;72705;53.346;10.248;2023-12-28T02:08:49;100770.16;;;7.32;95.75
82931;BME280;72705;53.346;10.248;2023-12-28T02:11:15;100743.03;;;7.16;96.33
82931;BME280;72705;53.346;10.248;2023-12-28T02:13:40;100780.19;;;7.40;96.13
82931;BME280;72705;53.346;10.248;2023-12-28T02:16:12;100759.84;;;7.38;95.27
82931;BME280;72705;53.346;10.248;2023-12-28T02:18:43;100732.47;;;7.34;95.08
82931;BME280;72705;53.346;10.248;2023-12-28T02:21:10;100801.09;;;7.56;95.97
82931;BME280;72705;53.346;10.248;2023-12-28T02:23:37;100794.88;;;7.65;94.75
82931;BME280;72705;53.346;10.248;2023-12-28T02:26:03;100758.75;;;7.40;94.73
82931;BME280;72705;53.346;10.248;2023-12-28T02:28:28;100769.28;;;7.61;95.01
82931;BME280;72705;53.346;10.248;2023-12-28T02:30:54;100798.81;;;7.70;94.98
82931;BME280;72705;53.346;10.248;2023-12-28T02:33:26;100729.91;;;7.42;94.20
82931;BME280;72705;53.346;10.248;2023-12-28T02:35:57;100789.03;;;7.79;94.45
82931;BME280;72705;53.346;10.248;2023-12-28T02:38:25;100777.63;;;7.77;94.96
82931;BME280;72705;53.346;10.248;2023-12-28T02:40:52;100751.34;;;7.71;93.99
82931;BME280;72705;53.346;10.248;2023-12-28T02:43:18;100762.91;;;7.81;94.34
82931;BME280;72705;53.346;10.248;2023-12-28T02:45:43;100747.97;;;7.69;93.52
82931;BME280;72705;53.346;10.248;2023-12-28T02:48:11;100736.41;;;7.59;93.81
82931;BME280;72705;53.346;10.248;2023-12-28T02:50:37;100717.47;;;7.51;93.84
82931;BME280;72705;53.346;10.248;2023-12-28T02:53:04;100773.66;;;7.81;93.96
82931;BME280;72705;53.346;10.248;2023-12-28T02:55:29;100780.41;;;7.85;93.99
82931;BME280;72705;53.346;10.248;2023-12-28T02:57:56;100759.50;;;7.79;93.80
82931;BME280;72705;53.346;10.248;2023-12-28T03:00:25;100684.47;;;7.31;94.27
82931;BME280;72705;53.346;10.248;2023-12-28T03:02:51;100742.31;;;7.62;94.67
82931;BME280;72705;53.346;10.248;2023-12-28T03:05:16;100700.81;;;7.57;93.74
82931;BME280;72705;53.346;10.248;2023-12-28T03:07:42;100748.41;;;7.64;93.51
82931;BME280;72705;53.346;10.248;2023-12-28T03:10:08;100727.38;;;7.50;94.25
82931;BME280;72705;53.346;10.248;2023-12-28T03:12:36;100766.03;;;7.67;94.67
82931;BME280;72705;53.346;10.248;2023-12-28T03:15:03;100754.72;;;7.73;94.20
82931;BME280;72705;53.346;10.248;2023-12-28T03:17:28;100747.97;;;7.69;93.81
82931;BME280;72705;53.346;10.248;2023-12-28T03:19:56;100717.75;;;7.48;94.06
82931;BME280;72705;53.346;10.248;2023-12-28T03:22:21;100768.28;;;7.81;94.05
82931;BME280;72705;53.346;10.248;2023-12-28T03:24:47;100762.78;;;7.73;94.99
82931;BME280;72705;53.346;10.248;2023-12-28T03:27:15;100699.84;;;7.29;95.15
82931;BME280;72705;53.346;10.248;2023-12-28T03:29:41;100702.41;;;7.30;94.64
82931;BME280;72705;53.346;10.248;2023-12-28T03:32:10;100690.09;;;7.38;94.31
82931;BME280;72705;53.346;10.248;2023-12-28T03:34:36;100687.44;;;7.28;94.66
82931;BME280;72705;53.346;10.248;2023-12-28T03:37:01;100730.06;;;7.50;94.72
82931;BME280;72705;53.346;10.248;2023-12-28T03:39:27;100749.53;;;7.62;94.33
82931;BME280;72705;53.346;10.248;2023-12-28T03:41:52;100712.97;;;7.42;94.25
82931;BME280;72705;53.346;10.248;2023-12-28T03:44:22;100764.88;;;7.79;94.74
82931;BME280;72705;53.346;10.248;2023-12-28T03:46:48;100721.72;;;7.44;94.74
82931;BME280;72705;53.346;10.248;2023-12-28T03:49:18;100772.69;;;7.63;95.60
82931;BME280;72705;53.346;10.248;2023-12-28T03:51:44;100715.22;;;7.37;95.46
82931;BME280;72705;53.346;10.248;2023-12-28T03:54:10;100733.75;;;7.40;95.22
82931;BME280;72705;53.346;10.248;2023-12-28T03:56:35;100773.69;;;7.62;95.46
82931;BME280;72705;53.346;10.248;2023-12-28T03:59:01;100781.88;;;7.70;95.00
82931;BME280;72705;53.346;10.248;2023-12-28T04:01:27;100789.50;;;7.65;95.49
82931;BME280;72705;53.346;10.248;2023-12-28T04:03:52;100787.53;;;7.57;96.28
82931;BME280;72705;53.346;10.248;2023-12-28T04:06:18;100781.88;;;7.70;95.80
82931;BME280;72705;53.346;10.248;2023-12-28T04:08:46;100758.28;;;7.54;95.64
82931;BME280;72705;53.346;10.248;2023-12-28T04:11:12;100701.16;;;7.15;95.18
82931;BME280;72705;53.346;10.248;2023-12-28T04:13:37;100670.94;;;6.94;95.78
82931;BME280;72705;53.346;10.248;2023-12-28T04:16:04;100720.47;;;7.28;95.90
82931;BME280;72705;53.346;10.248;2023-12-28T04:18:29;100748.56;;;7.44;95.57
82931;BME280;72705;53.346;10.248;2023-12-28T04:20:55;100773.97;;;7.59;96.16
82931;BME280;72705;53.346;10.248;2023-12-28T04:23:21;100740.91;;;7.49;95.52
82931;BME280;72705;53.346;10.248;2023-12-28T04:25:46;100729.63;;;7.36;95.74
82931;BME280;72705;53.346;10.248;2023-12-28T04:28:12;100774.38;;;7.64;95.52
82931;BME280;72705;53.346;10.248;2023-12-28T04:30:38;100763.25;;;7.59;95.86
82931;BME280;72705;53.346;10.248;2023-12-28T04:33:04;100733.31;;;7.44;95.35
82931;BME280;72705;53.346;10.248;2023-12-28T04:35:30;100757.31;;;7.46;95.54
82931;BME280;72705;53.346;10.248;2023-12-28T04:37:55;100753.50;;;7.39;96.01
82931;BME280;72705;53.346;10.248;2023-12-28T04:40:22;100728.50;;;7.28;96.17
82931;BME280;72705;53.346;10.248;2023-12-28T04:42:47;100739.25;;;7.38;96.18
82931;BME280;72705;53.346;10.248;2023-12-28T04:45:15;100729.34;;;7.29;95.91
82931;BME280;72705;53.346;10.248;2023-12-28T04:47:41;100755.06;;;7.51;96.34
82931;BME280;72705;53.346;10.248;2023-12-28T04:50:07;100781.31;;;7.57;96.18
82931;BME280;72705;53.346;10.248;2023-12-28T04:52:32;100701.28;;;7.33;95.29
82931;BME280;72705;53.346;10.248;2023-12-28T04:54:58;100766.75;;;7.69;95.25
82931;BME280;72705;53.346;10.248;2023-12-28T04:57:24;100760.97;;;7.64;95.94
82931;BME280;72705;53.346;10.248;2023-12-28T04:59:51;100746.16;;;7.41;96.67
82931;BME280;72705;53.346;10.248;2023-12-28T05:02:16;100699.16;;;7.27;95.37
82931;BME280;72705;53.346;10.248;2023-12-28T05:04:42;100762.66;;;7.55;96.04
82931;BME280;72705;53.346;10.248;2023-12-28T05:07:08;100761.53;;;7.58;95.75
82931;BME280;72705;53.346;10.248;2023-12-28T05:09:36;100789.47;;;7.75;95.37
82931;BME280;72705;53.346;10.248;2023-12-28T05:12:02;100763.81;;;7.53;95.84
82931;BME280;72705;53.346;10.248;2023-12-28T05:14:28;100764.06;;;7.59;95.55
82931;BME280;72705;53.346;10.248;2023-12-28T05:16:54;100779.63;;;7.56;96.07
82931;BME280;72705;53.346;10.248;2023-12-28T05:19:20;100748.28;;;7.37;96.12
82931;BME280;72705;53.346;10.248;2023-12-28T05:21:45;100745.19;;;7.32;96.44
82931;BME280;72705;53.346;10.248;2023-12-28T05:24:12;100762.38;;;7.78;95.28
82931;BME280;72705;53.346;10.248;2023-12-28T05:26:38;100781.00;;;7.79;95.00
82931;BME280;72705;53.346;10.248;2023-12-28T05:29:03;100761.25;;;7.70;95.34
82931;BME280;72705;53.346;10.248;2023-12-28T05:31:29;100733.19;;;7.46;95.35
82931;BME280;72705;53.346;10.248;2023-12-28T05:33:54;100778.91;;;7.63;95.91
82931;BME280;72705;53.346;10.248;2023-12-28T05:36:22;100769.72;;;7.76;95.51
82931;BME280;72705;53.346;10.248;2023-12-28T05:38:48;100740.63;;;7.61;95.19
82931;BME280;72705;53.346;10.248;2023-12-28T05:41:14;100747.72;;;7.53;95.65
82931;BME280;72705;53.346;10.248;2023-12-28T05:43:39;100784.41;;;7.62;95.96
82931;BME280;72705;53.346;10.248;2023-12-28T05:46:05;100775.50;;;7.71;95.73
82931;BME280;72705;53.346;10.248;2023-12-28T05:48:30;100733.84;;;7.48;95.72
82931;BME280;72705;53.346;10.248;2023-12-28T05:51:00;100761.78;;;7.74;95.54
82931;BME280;72705;53.346;10.248;2023-12-28T05:53:26;100738.78;;;7.62;95.21
82931;BME280;72705;53.346;10.248;2023-12-28T05:55:53;100774.78;;;7.88;94.85
82931;BME280;72705;53.346;10.248;2023-12-28T05:58:18;100760.63;;;7.86;95.05
82931;BME280;72705;53.346;10.248;2023-12-28T06:00:44;100766.72;;;7.88;94.82
82931;BME280;72705;53.346;10.248;2023-12-28T06:03:12;100750.47;;;7.80;94.06
82931;BME280;72705;53.346;10.248;2023-12-28T06:05:37;100740.88;;;7.78;94.29
82931;BME280;72705;53.346;10.248;2023-12-28T06:08:03;100774.47;;;7.91;94.38
82931;BME280;72705;53.346;10.248;2023-12-28T06:10:29;100781.97;;;7.88;94.67
82931;BME280;72705;53.346;10.248;2023-12-28T06:12:55;100744.69;;;7.75;93.83
82931;BME280;72705;53.346;10.248;2023-12-28T06:15:25;100669.50;;;7.38;93.60
82931;BME280;72705;53.346;10.248;2023-12-28T06:17:50;100741.16;;;7.75;93.94
82931;BME280;72705;53.346;10.248;2023-12-28T06:20:16;100776.47;;;7.89;94.66
82931;BME280;72705;53.346;10.248;2023-12-28T06:22:42;100744.56;;;7.67;94.89
82931;BME280;72705;53.346;10.248;2023-12-28T06:25:11;100784.94;;;7.94;95.04
82931;BME280;72705;53.346;10.248;2023-12-28T06:27:36;100766.13;;;7.85;94.29
82931;BME280;72705;53.346;10.248;2023-12-28T06:30:02;100747.22;;;7.86;93.63
82931;BME280;72705;53.346;10.248;2023-12-28T06:32:27;100776.97;;;8.02;93.87
82931;BME280;72705;53.346;10.248;2023-12-28T06:34:53;100731.94;;;7.87;93.52
82931;BME280;72705;53.346;10.248;2023-12-28T06:37:18;100726.31;;;7.80;93.34
82931;BME280;72705;53.346;10.248;2023-12-28T06:39:44;100743.66;;;7.95;93.13
82931;BME280;72705;53.346;10.248;2023-12-28T06:42:09;100786.94;;;8.29;92.38
82931;BME280;72705;53.346;10.248;2023-12-28T06:44:34;100771.81;;;8.38;91.85
82931;BME280;72705;53.346;10.248;2023-12-28T06:47:00;100781.13;;;8.43;91.43
82931;BME280;72705;53.346;10.248;2023-12-28T06:49:25;100681.78;;;7.87;91.19
82931;BME280;72705;53.346;10.248;2023-12-28T06:51:51;100718.75;;;8.03;91.30
82931;BME280;72705;53.346;10.248;2023-12-28T06:54:17;100783.06;;;8.51;90.51
82931;BME280;72705;53.346;10.248;2023-12-28T06:56:42;100763.25;;;8.52;90.52
82931;BME280;72705;53.346;10.248;2023-12-28T06:59:08;100698.72;;;8.25;90.07
82931;BME280;72705;53.346;10.248;2023-12-28T07:01:38;100706.78;;;8.25;90.20
82931;BME280;72705;53.346;10.248;2023-12-28T07:04:05;100753.97;;;8.64;89.44
82931;BME280;72705;53.346;10.248;2023-12-28T07:06:30;100653.75;;;7.99;89.30
82931;BME280;72705;53.346;10.248;2023-12-28T07:08:56;100731.09;;;8.60;88.75
82931;BME280;72705;53.346;10.248;2023-12-28T07:11:21;100760.03;;;8.76;88.54
82931;BME280;72705;53.346;10.248;2023-12-28T07:13:48;100781.84;;;8.90;88.55
82931;BME280;72705;53.346;10.248;2023-12-28T07:16:13;100725.97;;;8.67;87.92
82931;BME280;72705;53.346;10.248;2023-12-28T07:18:39;100724.72;;;8.61;87.42
82931;BME280;72705;53.346;10.248;2023-12-28T07:21:04;100777.28;;;9.01;87.74
82931;BME280;72705;53.346;10.248;2023-12-28T07:23:31;100783.31;;;9.03;88.15
82931;BME280;72705;53.346;10.248;2023-12-28T07:25:57;100755.34;;;8.96;88.01
82931;BME280;72705;53.346;10.248;2023-12-28T07:28:22;100735.88;;;8.84;87.97
82931;BME280;72705;53.346;10.248;2023-12-28T07:30:47;100760.34;;;8.90;88.02
82931;BME280;72705;53.346;10.248;2023-12-28T07:33:13;100752.59;;;8.87;87.93
82931;BME280;72705;53.346;10.248;2023-12-28T07:35:39;100756.28;;;8.86;87.87
82931;BME280;72705;53.346;10.248;2023-12-28T07:38:04;100779.03;;;8.92;88.00
82931;BME280;72705;53.346;10.248;2023-12-28T07:40:30;100778.78;;;8.85;88.66
82931;BME280;72705;53.346;10.248;2023-12-28T07:42:55;100753.91;;;8.56;88.63
82931;BME280;72705;53.346;10.248;2023-12-28T07:45:21;100781.88;;;8.63;89.67
82931;BME280;72705;53.346;10.248;2023-12-28T07:47:51;100723.13;;;8.41;88.76
82931;BME280;72705;53.346;10.248;2023-12-28T07:50:19;100782.44;;;8.84;88.16
82931;BME280;72705;53.346;10.248;2023-12-28T07:52:45;100719.16;;;8.45;87.89
82931;BME280;72705;53.346;10.248;2023-12-28T07:55:12;100742.22;;;8.65;87.55
82931;BME280;72705;53.346;10.248;2023-12-28T07:57:37;100790.00;;;8.81;89.08
82931;BME280;72705;53.346;10.248;2023-12-28T08:00:03;100749.41;;;8.47;89.57
82931;BME280;72705;53.346;10.248;2023-12-28T08:02:29;100762.53;;;8.77;88.01
82931;BME280;72705;53.346;10.248;2023-12-28T08:04:54;100765.81;;;8.71;88.38
82931;BME280;72705;53.346;10.248;2023-12-28T08:07:20;100774.03;;;8.97;87.25
82931;BME280;72705;53.346;10.248;2023-12-28T08:09:45;100774.59;;;9.01;87.94
82931;BME280;72705;53.346;10.248;2023-12-28T08:12:11;100729.38;;;8.86;86.96
82931;BME280;72705;53.346;10.248;2023-12-28T08:14:36;100691.22;;;8.56;87.17
82931;BME280;72705;53.346;10.248;2023-12-28T08:17:02;100745.75;;;8.93;86.86
82931;BME280;72705;53.346;10.248;2023-12-28T08:19:28;100738.53;;;8.93;86.53
82931;BME280;72705;53.346;10.248;2023-12-28T08:21:54;100753.91;;;9.19;86.46
82931;BME280;72705;53.346;10.248;2023-12-28T08:24:19;100752.59;;;9.23;85.83
82931;BME280;72705;53.346;10.248;2023-12-28T08:26:48;100716.53;;;9.16;85.29
82931;BME280;72705;53.346;10.248;2023-12-28T08:29:13;100738.59;;;9.37;85.22
82931;BME280;72705;53.346;10.248;2023-12-28T08:31:39;100762.13;;;9.35;86.19
82931;BME280;72705;53.346;10.248;2023-12-28T08:34:05;100771.13;;;9.61;85.41
82931;BME280;72705;53.346;10.248;2023-12-28T08:36:30;100665.59;;;8.97;85.20
82931;BME280;72705;53.346;10.248;2023-12-28T08:38:56;100756.31;;;9.65;84.30
82931;BME280;72705;53.346;10.248;2023-12-28T08:41:22;100726.28;;;9.52;84.13
82931;BME280;72705;53.346;10.248;2023-12-28T08:43:49;100722.28;;;9.56;83.62
82931;BME280;72705;53.346;10.248;2023-12-28T08:46:15;100754.91;;;9.79;84.04
82931;BME280;72705;53.346;10.248;2023-12-28T08:48:40;100740.75;;;9.77;83.79
82931;BME280;72705;53.346;10.248;2023-12-28T08:51:06;100657.09;;;9.27;83.80
82931;BME280;72705;53.346;10.248;2023-12-28T08:53:32;100714.97;;;9.49;84.13
82931;BME280;72705;53.346;10.248;2023-12-28T08:55:57;100731.69;;;9.78;84.08
82931;BME280;72705;53.346;10.248;2023-12-28T08:58:24;100672.31;;;9.36;83.12
82931;BME280;72705;53.346;10.248;2023-12-28T09:00:49;100721.03;;;9.68;83.31
82931;BME280;72705;53.346;10.248;2023-12-28T09:03:15;100746.28;;;9.93;84.05
82931;BME280;72705;53.346;10.248;2023-12-28T09:05:41;100752.88;;;9.99;83.05
82931;BME280;72705;53.346;10.248;2023-12-28T09:08:06;100757.94;;;10.02;82.40
82931;BME280;72705;53.346;10.248;2023-12-28T09:10:33;100758.94;;;10.01;82.46
82931;BME280;72705;53.346;10.248;2023-12-28T09:12:58;100718.69;;;9.73;82.53
82931;BME280;72705;53.346;10.248;2023-12-28T09:15:26;100714.69;;;9.78;82.50
82931;BME280;72705;53.346;10.248;2023-12-28T09:17:51;100767.41;;;10.06;82.04
82931;BME280;72705;53.346;10.248;2023-12-28T09:20:18;100748.78;;;9.95;82.08
82931;BME280;72705;53.346;10.248;2023-12-28T09:22:44;100752.38;;;10.03;81.70
82931;BME280;72705;53.346;10.248;2023-12-28T09:25:09;100764.22;;;10.10;81.10
82931;BME280;72705;53.346;10.248;2023-12-28T09:27:39;100750.59;;;10.12;80.81
82931;BME280;72705;53.346;10.248;2023-12-28T09:30:05;100743.94;;;9.98;81.59
82931;BME280;72705;53.346;10.248;2023-12-28T09:32:32;100775.53;;;10.14;80.40
82931;BME280;72705;53.346;10.248;2023-12-28T09:34:58;100731.25;;;9.91;81.13
82931;BME280;72705;53.346;10.248;2023-12-28T09:37:26;100759.06;;;10.17;80.52
82931;BME280;72705;53.346;10.248;2023-12-28T09:39:54;100755.03;;;10.21;79.31
82931;BME280;72705;53.346;10.248;2023-12-28T09:42:25;100782.06;;;10.37;79.08
82931;BME280;72705;53.346;10.248;2023-12-28T09:44:54;100767.56;;;10.30;78.92
82931;BME280;72705;53.346;10.248;2023-12-28T09:47:19;100809.13;;;10.53;79.07
82931;BME280;72705;53.346;10.248;2023-12-28T09:49:47;100788.06;;;10.57;78.72
82931;BME280;72705;53.346;10.248;2023-12-28T09:52:12;100768.00;;;10.51;78.55
82931;BME280;72705;53.346;10.248;2023-12-28T09:54:38;100797.00;;;10.58;78.71
82931;BME280;72705;53.346;10.248;2023-12-28T09:57:04;100734.91;;;10.33;78.09
82931;BME280;72705;53.346;10.248;2023-12-28T09:59:31;100788.06;;;10.57;77.58
82931;BME280;72705;53.346;10.248;2023-12-28T10:01:58;100772.25;;;10.54;77.50
82931;BME280;72705;53.346;10.248;2023-12-28T10:04:28;100740.44;;;10.32;78.20
82931;BME280;72705;53.346;10.248;2023-12-28T10:06:54;100743.34;;;10.38;78.30
82931;BME280;72705;53.346;10.248;2023-12-28T10:09:20;100749.16;;;10.60;77.91
82931;BME280;72705;53.346;10.248;2023-12-28T10:11:45;100704.25;;;10.34;78.31
82931;BME280;72705;53.346;10.248;2023-12-28T10:14:11;100727.75;;;10.58;76.68
82931;BME280;72705;53.346;10.248;2023-12-28T10:16:40;100748.06;;;10.86;76.52
82931;BME280;72705;53.346;10.248;2023-12-28T10:19:06;100698.94;;;10.59;75.87
82931;BME280;72705;53.346;10.248;2023-12-28T10:21:32;100707.72;;;10.69;76.66
82931;BME280;72705;53.346;10.248;2023-12-28T10:23:57;100660.03;;;10.19;77.32
82931;BME280;72705;53.346;10.248;2023-12-28T10:26:23;100748.72;;;10.72;77.30
82931;BME280;72705;53.346;10.248;2023-12-28T10:28:49;100756.25;;;10.61;77.81
82931;BME280;72705;53.346;10.248;2023-12-28T10:31:14;100728.16;;;10.37;77.49
82931;BME280;72705;53.346;10.248;2023-12-28T10:33:40;100760.25;;;10.48;77.82
82931;BME280;72705;53.346;10.248;2023-12-28T10:36:07;100766.94;;;10.44;78.18
82931;BME280;72705;53.346;10.248;2023-12-28T10:38:35;100787.22;;;10.57;78.52
82931;BME280;72705;53.346;10.248;2023-12-28T10:41:06;100783.19;;;10.52;78.61
82931;BME280;72705;53.346;10.248;2023-12-28T10:43:45;100726.75;;;10.25;78.26
82931;BME280;72705;53.346;10.248;2023-12-28T10:46:25;100639.47;;;9.84;77.39
82931;BME280;72705;53.346;10.248;2023-12-28T10:48:58;100731.03;;;10.36;77.66
82931;BME280;72705;53.346;10.248;2023-12-28T10:51:25;100714.31;;;10.32;77.49
82931;BME280;72705;53.346;10.248;2023-12-28T10:56:47;100767.03;;;10.61;77.77
82931;BME280;72705;53.346;10.248;2023-12-28T11:02:01;100764.75;;;10.40;77.82
82931;BME280;72705;53.346;10.248;2023-12-28T11:04:33;100771.06;;;10.57;77.71
82931;BME280;72705;53.346;10.248;2023-12-28T11:07:01;100757.00;;;10.45;78.53
82931;BME280;72705;53.346;10.248;2023-12-28T11:09:30;100782.81;;;10.47;78.50
82931;BME280;72705;53.346;10.248;2023-12-28T11:11:57;100745.13;;;10.22;78.81
82931;BME280;72705;53.346;10.248;2023-12-28T11:14:27;100774.56;;;10.49;78.65
82931;BME280;72705;53.346;10.248;2023-12-28T11:16:54;100723.06;;;10.26;78.48
82931;BME280;72705;53.346;10.248;2023-12-28T11:19:24;100752.13;;;10.40;78.59
82931;BME280;72705;53.346;10.248;2023-12-28T11:21:51;100742.28;;;10.31;78.65
82931;BME280;72705;53.346;10.248;2023-12-28T11:24:17;100758.50;;;10.39;78.55
82931;BME280;72705;53.346;10.248;2023-12-28T11:26:52;100735.19;;;10.22;78.23
82931;BME280;72705;53.346;10.248;2023-12-28T11:29:23;100744.88;;;10.41;78.24
82931;BME280;72705;53.346;10.248;2023-12-28T11:31:59;100731.75;;;10.46;77.88
82931;BME280;72705;53.346;10.248;2023-12-28T11:34:32;100776.66;;;10.63;78.19
82931;BME280;72705;53.346;10.248;2023-12-28T11:37:07;100776.84;;;10.70;78.71
82931;BME280;72705;53.346;10.248;2023-12-28T11:39:35;100739.34;;;10.50;77.14
82931;BME280;72705;53.346;10.248;2023-12-28T11:42:05;100751.53;;;10.63;78.08
82931;BME280;72705;53.346;10.248;2023-12-28T11:44:40;100764.03;;;10.72;78.14
82931;BME280;72705;53.346;10.248;2023-12-28T11:47:14;100739.69;;;10.55;77.66
82931;BME280;72705;53.346;10.248;2023-12-28T11:49:39;100683.47;;;10.27;77.67
82931;BME280;72705;53.346;10.248;2023-12-28T11:52:06;100691.81;;;10.41;78.34
82931;BME280;72705;53.346;10.248;2023-12-28T11:54:32;100712.38;;;10.50;78.22
82931;BME280;72705;53.346;10.248;2023-12-28T11:56:58;100732.97;;;10.60;78.08
82931;BME280;72705;53.346;10.248;2023-12-28T11:59:24;100703.63;;;10.57;77.07
82931;BME280;72705;53.346;10.248;2023-12-28T12:01:50;100753.47;;;10.94;76.65
82931;BME280;72705;53.346;10.248;2023-12-28T12:04:17;100749.28;;;10.92;76.81
82931;BME280;72705;53.346;10.248;2023-12-28T12:06:44;100713.47;;;10.74;76.39
82931;BME280;72705;53.346;10.248;2023-12-28T12:09:11;100756.19;;;10.94;76.99
82931;BME280;72705;53.346;10.248;2023-12-28T12:11:36;100733.03;;;10.76;76.74
82931;BME280;72705;53.346;10.248;2023-12-28T12:14:03;100741.47;;;10.81;76.94
82931;BME280;72705;53.346;10.248;2023-12-28T12:16:31;100772.19;;;10.88;77.13
82931;BME280;72705;53.346;10.248;2023-12-28T12:18:57;100715.97;;;10.59;76.82
82931;BME280;72705;53.346;10.248;2023-12-28T12:21:23;100745.19;;;10.80;76.86
82931;BME280;72705;53.346;10.248;2023-12-28T12:23:49;100741.66;;;10.87;77.52
82931;BME280;72705;53.346;10.248;2023-12-28T12:26:17;100731.03;;;10.78;76.66
82931;BME280;72705;53.346;10.248;2023-12-28T12:28:43;100740.47;;;10.82;76.54
82931;BME280;72705;53.346;10.248;2023-12-28T12:31:10;100720.53;;;10.67;75.84
82931;BME280;72705;53.346;10.248;2023-12-28T12:33:36;100759.03;;;10.93;76.59
82931;BME280;72705;53.346;10.248;2023-12-28T12:36:04;100739.31;;;10.92;76.50
82931;BME280;72705;53.346;10.248;2023-12-28T12:38:31;100756.34;;;10.93;76.01
82931;BME280;72705;53.346;10.248;2023-12-28T12:40:58;100751.97;;;10.92;76.34
82931;BME280;72705;53.346;10.248;2023-12-28T12:43:27;100754.97;;;10.89;76.40
82931;BME280;72705;53.346;10.248;2023-12-28T12:45:53;100690.41;;;10.37;76.27
82931;BME280;72705;53.346;10.248;2023-12-28T12:48:18;100764.75;;;10.82;76.65
82931;BME280;72705;53.346;10.248;2023-12-28T12:50:44;100757.69;;;10.89;76.17